PWSweather.com
Personal Weather Stations
Station Observations

SkegnessGB

Lat: 53.147585, Lon: 0.345774

Elevation: 18

Station Type: Fine Offset WH3080

http://www.skegnessweather.info/

Latest ConditionsUpdated 3:40:00 PM GMT Tuesday, Sep 25, 2018
Currently Today's Max Today's Min Today's Average
Temperature 62.6°F17.0°C 64.0°F17.8°C 38.5°F3.6°C 49.8°F9.9°C
Dew Point 39.2°F4.0°C 50.5°F10.3°C 38.5°F3.6°C 43.1°F6.2°C
Winds 10.4 mph SW16.7 kmh SW 19.3 mph -31.1 kmh - - 5.2 mph 8.4 kmh
Wind Gusts 13.3 mph21.4 kmh 19.2 mph30.9 kmh - -
Humidity 42% 100% 42% 82%
Pressure 30.55 in1034.5 mb 30.67 in1038.6 mb 30.55 in1034.5 mb -
Hour Temp Dew Point Humidity Winds Wind Gusts Pressure Precip Precip Rate Daily Precip Total
03:40 PM 62.6°F17.0°C 39.2°F4.0°C 42% 10.4 mph SW16.7 kmh SW 13.3 mph21.4 kmh 30.55 in1034.5 mb 0.00 in0.0 mm 0.00 in0.0 mm 0.00 in0.0 mm
03:30 PM 62.6°F17.0°C 39.2°F4.0°C 42% 12.9 mph S20.8 kmh S 14.3 mph23.0 kmh 30.55 in1034.5 mb 0.00 in0.0 mm 0.00 in0.0 mm 0.00 in0.0 mm
03:20 PM 62.8°F17.1°C 39.9°F4.4°C 43% 11.0 mph SW17.7 kmh SW 14.3 mph23.0 kmh 30.55 in1034.5 mb 0.00 in0.0 mm 0.00 in0.0 mm 0.00 in0.0 mm
03:10 PM 63.0°F17.2°C 41.8°F5.4°C 46% 9.4 mph S15.1 kmh S 10.8 mph17.4 kmh 30.55 in1034.5 mb 0.00 in0.0 mm 0.00 in0.0 mm 0.00 in0.0 mm
03:00 PM 63.1°F17.3°C 42.0°F5.6°C 46% 11.8 mph S19.0 kmh S 12.5 mph20.1 kmh 30.56 in1034.9 mb 0.00 in0.0 mm 0.00 in0.0 mm 0.00 in0.0 mm
02:50 PM 63.1°F17.3°C 41.4°F5.2°C 45% 11.6 mph SW18.7 kmh SW 14.3 mph23.0 kmh 30.56 in1034.9 mb 0.00 in0.0 mm 0.00 in0.0 mm 0.00 in0.0 mm
02:40 PM 63.0°F17.2°C 41.8°F5.4°C 46% 13.2 mph S21.2 kmh S 15.0 mph24.1 kmh 30.56 in1034.9 mb 0.00 in0.0 mm 0.00 in0.0 mm 0.00 in0.0 mm
02:30 PM 63.0°F17.2°C 41.8°F5.4°C 46% 12.3 mph S19.8 kmh S 13.3 mph21.4 kmh 30.56 in1034.9 mb 0.00 in0.0 mm 0.00 in0.0 mm 0.00 in0.0 mm
02:10 PM 63.0°F17.2°C 41.3°F5.2°C 45% 19.3 mph E31.1 kmh E 16.7 mph26.9 kmh 30.56 in1034.9 mb 0.00 in0.0 mm 0.00 in0.0 mm 0.00 in0.0 mm
02:00 PM 63.0°F17.2°C 41.3°F5.2°C 45% 14.5 mph SSW23.3 kmh SSW 16.7 mph26.9 kmh 30.57 in1035.2 mb 0.00 in0.0 mm 0.00 in0.0 mm 0.00 in0.0 mm
01:50 PM 63.7°F17.6°C 43.6°F6.4°C 48% 10.4 mph SSW16.7 kmh SSW 16.0 mph25.7 kmh 30.57 in1035.2 mb 0.00 in0.0 mm 0.00 in0.0 mm 0.00 in0.0 mm
01:40 PM 63.3°F17.4°C 43.3°F6.3°C 48% 12.7 mph SW20.4 kmh SW 12.5 mph20.1 kmh 30.57 in1035.2 mb 0.00 in0.0 mm 0.00 in0.0 mm 0.00 in0.0 mm
01:30 PM 63.0°F17.2°C 44.0°F6.7°C 50% 14.5 mph S23.3 kmh S 16.7 mph26.9 kmh 30.58 in1035.6 mb 0.00 in0.0 mm 0.00 in0.0 mm 0.00 in0.0 mm
01:20 PM 63.7°F17.6°C 45.7°F7.6°C 52% 11.3 mph S18.2 kmh S 14.3 mph23.0 kmh 30.59 in1035.9 mb 0.00 in0.0 mm 0.00 in0.0 mm 0.00 in0.0 mm
01:10 PM 63.5°F17.5°C 45.6°F7.6°C 52% 10.6 mph SSW17.1 kmh SSW 14.3 mph23.0 kmh 30.59 in1035.9 mb 0.00 in0.0 mm 0.00 in0.0 mm 0.00 in0.0 mm
01:00 PM 64.0°F17.8°C 46.1°F7.8°C 52% 11.4 mph WSW18.3 kmh WSW 14.3 mph23.0 kmh 30.60 in1036.2 mb 0.00 in0.0 mm 0.00 in0.0 mm 0.00 in0.0 mm
12:50 PM 63.1°F17.3°C 45.2°F7.3°C 52% 13.2 mph S21.2 kmh S 15.0 mph24.1 kmh 30.60 in1036.2 mb 0.00 in0.0 mm 0.00 in0.0 mm 0.00 in0.0 mm
12:40 PM 63.1°F17.3°C 45.2°F7.3°C 52% 12.5 mph SSW20.1 kmh SSW 19.2 mph30.9 kmh 30.60 in1036.2 mb 0.00 in0.0 mm 0.00 in0.0 mm 0.00 in0.0 mm
12:30 PM 63.0°F17.2°C 45.1°F7.3°C 52% 13.5 mph SSE21.7 kmh SSE 16.0 mph25.7 kmh 30.61 in1036.6 mb 0.00 in0.0 mm 0.00 in0.0 mm 0.00 in0.0 mm
12:20 PM 63.5°F17.5°C 46.6°F8.1°C 54% 10.8 mph SSW17.4 kmh SSW 12.5 mph20.1 kmh 30.61 in1036.6 mb 0.00 in0.0 mm 0.00 in0.0 mm 0.00 in0.0 mm
12:10 PM 63.3°F17.4°C 46.4°F8.0°C 54% 10.7 mph ENE17.2 kmh ENE 12.5 mph20.1 kmh 30.62 in1036.9 mb 0.00 in0.0 mm 0.00 in0.0 mm 0.00 in0.0 mm
12:00 PM 62.4°F16.9°C 48.3°F9.1°C 60% 12.4 mph SSE20.0 kmh SSE 13.3 mph21.4 kmh 30.63 in1037.3 mb 0.00 in0.0 mm 0.00 in0.0 mm 0.00 in0.0 mm
11:50 AM 62.2°F16.8°C 49.1°F9.5°C 62% 12.8 mph SSW20.6 kmh SSW 15.0 mph24.1 kmh 30.62 in1036.9 mb 0.00 in0.0 mm 0.00 in0.0 mm 0.00 in0.0 mm
11:40 AM 63.0°F17.2°C 47.9°F8.8°C 58% 8.5 mph S13.7 kmh S 10.1 mph16.3 kmh 30.62 in1036.9 mb 0.00 in0.0 mm 0.00 in0.0 mm 0.00 in0.0 mm
11:30 AM 62.8°F17.1°C 48.7°F9.3°C 60% 9.6 mph S15.4 kmh S 11.8 mph19.0 kmh 30.63 in1037.3 mb 0.00 in0.0 mm 0.00 in0.0 mm 0.00 in0.0 mm
11:20 AM 63.0°F17.2°C 49.3°F9.6°C 61% 7.9 mph SSW12.7 kmh SSW 9.1 mph14.6 kmh 30.64 in1037.6 mb 0.00 in0.0 mm 0.00 in0.0 mm 0.00 in0.0 mm
11:10 AM 62.6°F17.0°C 49.4°F9.7°C 62% 9.0 mph S14.5 kmh S 10.8 mph17.4 kmh 30.64 in1037.6 mb 0.00 in0.0 mm 0.00 in0.0 mm 0.00 in0.0 mm
11:00 AM 62.4°F16.9°C 50.5°F10.3°C 65% 8.5 mph S13.7 kmh S 11.8 mph19.0 kmh 30.64 in1037.6 mb 0.00 in0.0 mm 0.00 in0.0 mm 0.00 in0.0 mm
10:50 AM 61.7°F16.5°C 49.8°F9.9°C 65% 8.7 mph S14.0 kmh S 10.8 mph17.4 kmh 30.65 in1037.9 mb 0.00 in0.0 mm 0.00 in0.0 mm 0.00 in0.0 mm
10:40 AM 61.5°F16.4°C 50.1°F10.1°C 66% 8.2 mph SSW13.2 kmh SSW 11.8 mph19.0 kmh 30.64 in1037.6 mb 0.00 in0.0 mm 0.00 in0.0 mm 0.00 in0.0 mm
10:30 AM 61.3°F16.3°C 49.9°F9.9°C 66% 8.1 mph S13.0 kmh S 12.5 mph20.1 kmh 30.65 in1037.9 mb 0.00 in0.0 mm 0.00 in0.0 mm 0.00 in0.0 mm
10:20 AM 61.0°F16.1°C 49.9°F9.9°C 67% 8.6 mph S13.8 kmh S 10.1 mph16.3 kmh 30.65 in1037.9 mb 0.00 in0.0 mm 0.00 in0.0 mm 0.00 in0.0 mm
10:10 AM 61.0°F16.1°C 50.3°F10.2°C 68% 7.4 mph SW11.9 kmh SW 6.6 mph10.6 kmh 30.66 in1038.3 mb 0.00 in0.0 mm 0.00 in0.0 mm 0.00 in0.0 mm
10:00 AM 60.1°F15.6°C 49.5°F9.7°C 68% 8.6 mph SW13.8 kmh SW 10.1 mph16.3 kmh 30.66 in1038.3 mb 0.00 in0.0 mm 0.00 in0.0 mm 0.00 in0.0 mm
09:50 AM 59.9°F15.5°C 50.5°F10.3°C 71% 6.8 mph S10.9 kmh S 7.6 mph12.2 kmh 30.65 in1037.9 mb 0.00 in0.0 mm 0.00 in0.0 mm 0.00 in0.0 mm
09:40 AM 58.5°F14.7°C 49.5°F9.7°C 72% 6.0 mph SSW9.7 kmh SSW 7.6 mph12.2 kmh 30.66 in1038.3 mb 0.00 in0.0 mm 0.00 in0.0 mm 0.00 in0.0 mm
09:30 AM 56.8°F13.8°C 49.4°F9.7°C 76% 6.4 mph SW10.3 kmh SW 6.6 mph10.6 kmh 30.67 in1038.6 mb 0.00 in0.0 mm 0.00 in0.0 mm 0.00 in0.0 mm
09:20 AM 53.4°F11.9°C 49.0°F9.4°C 85% 6.8 mph S10.9 kmh S 8.4 mph13.5 kmh 30.66 in1038.3 mb 0.00 in0.0 mm 0.00 in0.0 mm 0.00 in0.0 mm
09:10 AM 51.6°F10.9°C 48.2°F9.0°C 88% 4.7 mph SSW7.6 kmh SSW 7.6 mph12.2 kmh 30.66 in1038.3 mb 0.00 in0.0 mm 0.00 in0.0 mm 0.00 in0.0 mm
09:00 AM 50.7°F10.4°C 48.2°F9.0°C 91% 5.1 mph SW8.2 kmh SW 6.6 mph10.6 kmh 30.66 in1038.3 mb 0.00 in0.0 mm 0.00 in0.0 mm 0.00 in0.0 mm
08:50 AM 49.6°F9.8°C 48.0°F8.9°C 94% 4.1 mph S6.6 kmh S 7.6 mph12.2 kmh 30.66 in1038.3 mb 0.00 in0.0 mm 0.00 in0.0 mm 0.00 in0.0 mm
08:40 AM 48.7°F9.3°C 47.7°F8.7°C 96% 3.7 mph S6.0 kmh S 4.9 mph7.9 kmh 30.66 in1038.3 mb 0.00 in0.0 mm 0.00 in0.0 mm 0.00 in0.0 mm
08:30 AM 48.0°F8.9°C 48.0°F8.9°C 100% 4.8 mph S7.7 kmh S 6.6 mph10.6 kmh 30.66 in1038.3 mb 0.00 in0.0 mm 0.00 in0.0 mm 0.00 in0.0 mm
08:20 AM 47.1°F8.4°C 47.1°F8.4°C 100% 3.7 mph SSW6.0 kmh SSW 5.9 mph9.5 kmh 30.66 in1038.3 mb 0.00 in0.0 mm 0.00 in0.0 mm 0.00 in0.0 mm
08:10 AM 46.0°F7.8°C 46.0°F7.8°C 100% 3.4 mph SSE5.5 kmh SSE 5.9 mph9.5 kmh 30.66 in1038.3 mb 0.00 in0.0 mm 0.00 in0.0 mm 0.00 in0.0 mm
08:00 AM 44.8°F7.1°C 44.8°F7.1°C 100% 2.5 mph SE4.0 kmh SE 4.2 mph6.8 kmh 30.66 in1038.3 mb 0.00 in0.0 mm 0.00 in0.0 mm 0.00 in0.0 mm
07:50 AM 43.5°F6.4°C 43.5°F6.4°C 100% 1.6 mph SW2.6 kmh SW 2.5 mph4.0 kmh 30.66 in1038.3 mb 0.00 in0.0 mm 0.00 in0.0 mm 0.00 in0.0 mm
07:40 AM 42.4°F5.8°C 42.4°F5.8°C 100% 1.9 mph S3.1 kmh S 3.4 mph5.5 kmh 30.66 in1038.3 mb 0.00 in0.0 mm 0.00 in0.0 mm 0.00 in0.0 mm
07:30 AM 41.4°F5.2°C 41.4°F5.2°C 100% 2.2 mph S3.5 kmh S 2.5 mph4.0 kmh 30.65 in1037.9 mb 0.00 in0.0 mm 0.00 in0.0 mm 0.00 in0.0 mm
07:20 AM 40.5°F4.7°C 40.5°F4.7°C 100% 1.4 mph SSW2.3 kmh SSW 2.5 mph4.0 kmh 30.65 in1037.9 mb 0.00 in0.0 mm 0.00 in0.0 mm 0.00 in0.0 mm
07:10 AM 39.9°F4.4°C 39.9°F4.4°C 100% 1.2 mph SSW1.9 kmh SSW 1.7 mph2.7 kmh 30.65 in1037.9 mb 0.00 in0.0 mm 0.00 in0.0 mm 0.00 in0.0 mm
07:00 AM 39.6°F4.2°C 39.6°F4.2°C 100% 0.9 mph WSW1.4 kmh WSW 1.7 mph2.7 kmh 30.65 in1037.9 mb 0.00 in0.0 mm 0.00 in0.0 mm 0.00 in0.0 mm
06:50 AM 39.2°F4.0°C 39.2°F4.0°C 100% 0.8 mph W1.3 kmh W 1.7 mph2.7 kmh 30.64 in1037.6 mb 0.00 in0.0 mm 0.00 in0.0 mm 0.00 in0.0 mm
06:40 AM 38.8°F3.8°C 38.8°F3.8°C 100% 1.4 mph SSW2.3 kmh SSW 2.5 mph4.0 kmh 30.64 in1037.6 mb 0.00 in0.0 mm 0.00 in0.0 mm 0.00 in0.0 mm
06:30 AM 38.7°F3.7°C 38.7°F3.7°C 100% 1.6 mph S2.6 kmh S 2.5 mph4.0 kmh 30.64 in1037.6 mb 0.00 in0.0 mm 0.00 in0.0 mm 0.00 in0.0 mm
06:20 AM 38.5°F3.6°C 38.5°F3.6°C 100% 1.5 mph WSW2.4 kmh WSW 3.4 mph5.5 kmh 30.64 in1037.6 mb 0.00 in0.0 mm 0.00 in0.0 mm 0.00 in0.0 mm
06:10 AM 38.5°F3.6°C 38.5°F3.6°C 100% 2.2 mph NNE3.5 kmh NNE 2.5 mph4.0 kmh 30.64 in1037.6 mb 0.00 in0.0 mm 0.00 in0.0 mm 0.00 in0.0 mm
06:00 AM 38.5°F3.6°C 38.5°F3.6°C 100% 1.2 mph SE1.9 kmh SE 1.7 mph2.7 kmh 30.64 in1037.6 mb 0.00 in0.0 mm 0.00 in0.0 mm 0.00 in0.0 mm
05:50 AM 38.7°F3.7°C 38.7°F3.7°C 100% 1.3 mph S2.1 kmh S 2.5 mph4.0 kmh 30.64 in1037.6 mb 0.00 in0.0 mm 0.00 in0.0 mm 0.00 in0.0 mm
05:40 AM 38.7°F3.7°C 38.7°F3.7°C 100% 1.6 mph SW2.6 kmh SW 2.5 mph4.0 kmh 30.64 in1037.6 mb 0.00 in0.0 mm 0.00 in0.0 mm 0.00 in0.0 mm
05:30 AM 38.7°F3.7°C 38.7°F3.7°C 100% 1.2 mph SSW1.9 kmh SSW 2.5 mph4.0 kmh 30.64 in1037.6 mb 0.00 in0.0 mm 0.00 in0.0 mm 0.00 in0.0 mm
05:20 AM 38.8°F3.8°C 38.8°F3.8°C 100% 1.7 mph SE2.7 kmh SE 2.5 mph4.0 kmh 30.64 in1037.6 mb 0.00 in0.0 mm 0.00 in0.0 mm 0.00 in0.0 mm
05:10 AM 38.8°F3.8°C 38.8°F3.8°C 100% 1.2 mph WNW1.9 kmh WNW 2.5 mph4.0 kmh 30.63 in1037.3 mb 0.00 in0.0 mm 0.00 in0.0 mm 0.00 in0.0 mm
05:00 AM 39.0°F3.9°C 39.0°F3.9°C 100% 1.2 mph WSW1.9 kmh WSW 2.5 mph4.0 kmh 30.63 in1037.3 mb 0.00 in0.0 mm 0.00 in0.0 mm 0.00 in0.0 mm
04:50 AM 39.4°F4.1°C 39.4°F4.1°C 100% 1.4 mph SW2.3 kmh SW 2.5 mph4.0 kmh 30.64 in1037.6 mb 0.00 in0.0 mm 0.00 in0.0 mm 0.00 in0.0 mm
04:40 AM 39.4°F4.1°C 39.4°F4.1°C 100% 1.2 mph S1.9 kmh S 2.5 mph4.0 kmh 30.64 in1037.6 mb 0.00 in0.0 mm 0.00 in0.0 mm 0.00 in0.0 mm
04:30 AM 39.6°F4.2°C 39.6°F4.2°C 100% 0.9 mph WSW1.4 kmh WSW 1.7 mph2.7 kmh 30.63 in1037.3 mb 0.00 in0.0 mm 0.00 in0.0 mm 0.00 in0.0 mm
04:20 AM 39.6°F4.2°C 39.6°F4.2°C 100% 0.5 mph S0.8 kmh S 1.7 mph2.7 kmh 30.64 in1037.6 mb 0.00 in0.0 mm 0.00 in0.0 mm 0.00 in0.0 mm
04:10 AM 39.7°F4.3°C 39.7°F4.3°C 100% 1.0 mph S1.6 kmh S 1.7 mph2.7 kmh 30.64 in1037.6 mb 0.00 in0.0 mm 0.00 in0.0 mm 0.00 in0.0 mm
04:00 AM 39.7°F4.3°C 39.7°F4.3°C 100% 0.8 mph SSW1.3 kmh SSW 1.7 mph2.7 kmh 30.65 in1037.9 mb 0.00 in0.0 mm 0.00 in0.0 mm 0.00 in0.0 mm
03:50 AM 39.7°F4.3°C 39.7°F4.3°C 100% 0.5 mph S0.8 kmh S 1.7 mph2.7 kmh 30.65 in1037.9 mb 0.00 in0.0 mm 0.00 in0.0 mm 0.00 in0.0 mm
03:40 AM 39.7°F4.3°C 39.7°F4.3°C 100% 0.3 mph SSE0.5 kmh SSE 1.7 mph2.7 kmh 30.65 in1037.9 mb 0.00 in0.0 mm 0.00 in0.0 mm 0.00 in0.0 mm
03:30 AM 39.7°F4.3°C 39.7°F4.3°C 100% 0.5 mph WSW0.8 kmh WSW 1.7 mph2.7 kmh 30.65 in1037.9 mb 0.00 in0.0 mm 0.00 in0.0 mm 0.00 in0.0 mm
03:20 AM 39.7°F4.3°C 39.7°F4.3°C 100% 0.5 mph S0.8 kmh S 1.7 mph2.7 kmh 30.65 in1037.9 mb 0.00 in0.0 mm 0.00 in0.0 mm 0.00 in0.0 mm
03:10 AM 39.7°F4.3°C 39.7°F4.3°C 100% 0.3 mph SW0.5 kmh SW 1.7 mph2.7 kmh 30.66 in1038.3 mb 0.00 in0.0 mm 0.00 in0.0 mm 0.00 in0.0 mm
03:00 AM 39.9°F4.4°C 39.9°F4.4°C 100% 1.0 mph SW1.6 kmh SW 1.7 mph2.7 kmh 30.66 in1038.3 mb 0.00 in0.0 mm 0.00 in0.0 mm 0.00 in0.0 mm
02:50 AM 40.1°F4.5°C 40.1°F4.5°C 100% 0.8 mph S1.3 kmh S 1.7 mph2.7 kmh 30.66 in1038.3 mb 0.00 in0.0 mm 0.00 in0.0 mm 0.00 in0.0 mm
02:40 AM 40.5°F4.7°C 40.5°F4.7°C 100% 1.5 mph SSW2.4 kmh SSW 2.5 mph4.0 kmh 30.66 in1038.3 mb 0.00 in0.0 mm 0.00 in0.0 mm 0.00 in0.0 mm
02:30 AM 40.6°F4.8°C 40.6°F4.8°C 100% 0.6 mph SSW1.0 kmh SSW 1.7 mph2.7 kmh 30.66 in1038.3 mb 0.00 in0.0 mm 0.00 in0.0 mm 0.00 in0.0 mm
02:20 AM 40.8°F4.9°C 40.8°F4.9°C 100% 0.7 mph SW1.1 kmh SW 2.5 mph4.0 kmh 30.66 in1038.3 mb 0.00 in0.0 mm 0.00 in0.0 mm 0.00 in0.0 mm
02:10 AM 40.8°F4.9°C 40.6°F4.8°C 99% 1.2 mph WSW1.9 kmh WSW 1.7 mph2.7 kmh 30.66 in1038.3 mb 0.00 in0.0 mm 0.00 in0.0 mm 0.00 in0.0 mm
02:00 AM 40.8°F4.9°C 40.6°F4.8°C 99% 1.5 mph SW2.4 kmh SW 2.5 mph4.0 kmh 30.66 in1038.3 mb 0.00 in0.0 mm 0.00 in0.0 mm 0.00 in0.0 mm
01:50 AM 41.0°F5.0°C 40.7°F4.8°C 99% 1.6 mph SW2.6 kmh SW 2.5 mph4.0 kmh 30.66 in1038.3 mb 0.00 in0.0 mm 0.00 in0.0 mm 0.00 in0.0 mm
01:40 AM 41.2°F5.1°C 40.7°F4.8°C 98% 1.1 mph S1.8 kmh S 2.5 mph4.0 kmh 30.66 in1038.3 mb 0.00 in0.0 mm 0.00 in0.0 mm 0.00 in0.0 mm
01:30 AM 41.4°F5.2°C 40.8°F4.9°C 98% Calm Calm 1.7 mph2.7 kmh 30.66 in1038.3 mb 0.00 in0.0 mm 0.00 in0.0 mm 0.00 in0.0 mm
01:20 AM 41.5°F5.3°C 41.0°F5.0°C 98% 1.1 mph WSW1.8 kmh WSW 1.7 mph2.7 kmh 30.66 in1038.3 mb 0.00 in0.0 mm 0.00 in0.0 mm 0.00 in0.0 mm
01:10 AM 41.7°F5.4°C 41.2°F5.1°C 98% 0.9 mph SSW1.4 kmh SSW 2.5 mph4.0 kmh 30.66 in1038.3 mb 0.00 in0.0 mm 0.00 in0.0 mm 0.00 in0.0 mm
01:00 AM 41.7°F5.4°C 40.9°F4.9°C 97% 0.6 mph SW1.0 kmh SW 1.7 mph2.7 kmh 30.66 in1038.3 mb 0.00 in0.0 mm 0.00 in0.0 mm 0.00 in0.0 mm
12:50 AM 41.9°F5.5°C 41.1°F5.1°C 97% 0.2 mph SW0.3 kmh SW 1.7 mph2.7 kmh 30.66 in1038.3 mb 0.00 in0.0 mm 0.00 in0.0 mm 0.00 in0.0 mm
12:40 AM 42.4°F5.8°C 41.6°F5.3°C 97% 1.0 mph S1.6 kmh S 2.5 mph4.0 kmh 30.66 in1038.3 mb 0.00 in0.0 mm 0.00 in0.0 mm 0.00 in0.0 mm
12:30 AM 42.8°F6.0°C 42.3°F5.7°C 98% 1.5 mph S2.4 kmh S 2.5 mph4.0 kmh 30.66 in1038.3 mb 0.00 in0.0 mm 0.00 in0.0 mm 0.00 in0.0 mm
12:20 AM 43.0°F6.1°C 42.2°F5.7°C 97% 2.0 mph SSW3.2 kmh SSW 2.5 mph4.0 kmh 30.67 in1038.6 mb 0.00 in0.0 mm 0.00 in0.0 mm 0.00 in0.0 mm
12:10 AM 43.3°F6.3°C 42.5°F5.8°C 97% 2.4 mph NW3.9 kmh NW 2.5 mph4.0 kmh 30.67 in1038.6 mb 0.00 in0.0 mm 0.00 in0.0 mm 0.00 in0.0 mm
12:00 AM 43.5°F6.4°C 42.7°F5.9°C 97% 1.7 mph WSW2.7 kmh WSW 2.5 mph4.0 kmh 30.67 in1038.6 mb 0.00 in0.0 mm 0.00 in0.0 mm 0.00 in0.0 mm